sensor_id;sensor_type;location;lat;lon;timestamp;P1;durP1;ratioP1;P2;durP2;ratioP2
21729;SDS011;11027;51.030;13.812;2023-06-26T00:01:06;8.00;;;5.10;;
21729;SDS011;11027;51.030;13.812;2023-06-26T00:03:31;5.15;;;4.65;;
21729;SDS011;11027;51.030;13.812;2023-06-26T00:05:58;5.93;;;5.03;;
21729;SDS011;11027;51.030;13.812;2023-06-26T00:08:25;6.47;;;5.40;;
21729;SDS011;11027;51.030;13.812;2023-06-26T00:10:50;7.07;;;5.10;;
21729;SDS011;11027;51.030;13.812;2023-06-26T00:13:16;8.05;;;5.18;;
21729;SDS011;11027;51.030;13.812;2023-06-26T00:15:41;5.35;;;4.68;;
21729;SDS011;11027;51.030;13.812;2023-06-26T00:18:07;5.60;;;5.10;;
21729;SDS011;11027;51.030;13.812;2023-06-26T00:20:32;8.55;;;5.03;;
21729;SDS011;11027;51.030;13.812;2023-06-26T00:22:59;6.55;;;5.13;;
21729;SDS011;11027;51.030;13.812;2023-06-26T00:25:24;6.80;;;4.97;;
21729;SDS011;11027;51.030;13.812;2023-06-26T00:27:49;7.22;;;5.30;;
21729;SDS011;11027;51.030;13.812;2023-06-26T00:30:15;7.47;;;5.07;;
21729;SDS011;11027;51.030;13.812;2023-06-26T00:32:40;6.40;;;5.28;;
21729;SDS011;11027;51.030;13.812;2023-06-26T00:35:05;8.15;;;5.22;;
21729;SDS011;11027;51.030;13.812;2023-06-26T00:37:31;7.22;;;5.63;;
21729;SDS011;11027;51.030;13.812;2023-06-26T00:39:56;9.82;;;5.15;;
21729;SDS011;11027;51.030;13.812;2023-06-26T00:42:21;5.75;;;5.07;;
21729;SDS011;11027;51.030;13.812;2023-06-26T00:44:46;9.25;;;5.30;;
21729;SDS011;11027;51.030;13.812;2023-06-26T00:47:14;7.03;;;4.95;;
21729;SDS011;11027;51.030;13.812;2023-06-26T00:49:40;9.02;;;5.03;;
21729;SDS011;11027;51.030;13.812;2023-06-26T00:52:05;7.70;;;5.50;;
21729;SDS011;11027;51.030;13.812;2023-06-26T00:54:31;6.35;;;4.93;;
21729;SDS011;11027;51.030;13.812;2023-06-26T00:56:56;6.22;;;5.60;;
21729;SDS011;11027;51.030;13.812;2023-06-26T00:59:22;8.75;;;5.28;;
21729;SDS011;11027;51.030;13.812;2023-06-26T01:01:47;5.50;;;4.90;;
21729;SDS011;11027;51.030;13.812;2023-06-26T01:04:13;9.80;;;5.57;;
21729;SDS011;11027;51.030;13.812;2023-06-26T01:06:42;8.45;;;5.93;;
21729;SDS011;11027;51.030;13.812;2023-06-26T01:09:14;10.05;;;5.28;;
21729;SDS011;11027;51.030;13.812;2023-06-26T01:11:41;10.57;;;5.47;;
21729;SDS011;11027;51.030;13.812;2023-06-26T01:14:06;5.80;;;5.28;;
21729;SDS011;11027;51.030;13.812;2023-06-26T01:16:31;7.90;;;5.47;;
21729;SDS011;11027;51.030;13.812;2023-06-26T01:18:57;7.80;;;5.40;;
21729;SDS011;11027;51.030;13.812;2023-06-26T01:21:23;10.70;;;5.68;;
21729;SDS011;11027;51.030;13.812;2023-06-26T01:23:57;9.23;;;5.97;;
21729;SDS011;11027;51.030;13.812;2023-06-26T01:26:29;9.13;;;6.10;;
21729;SDS011;11027;51.030;13.812;2023-06-26T01:28:56;6.70;;;5.18;;
21729;SDS011;11027;51.030;13.812;2023-06-26T01:31:23;5.93;;;5.07;;
21729;SDS011;11027;51.030;13.812;2023-06-26T01:33:49;6.47;;;5.28;;
21729;SDS011;11027;51.030;13.812;2023-06-26T01:36:14;7.60;;;5.47;;
21729;SDS011;11027;51.030;13.812;2023-06-26T01:38:40;6.32;;;5.28;;
21729;SDS011;11027;51.030;13.812;2023-06-26T01:41:05;8.30;;;5.72;;
21729;SDS011;11027;51.030;13.812;2023-06-26T01:46:22;7.03;;;5.45;;
21729;SDS011;11027;51.030;13.812;2023-06-26T01:48:51;6.25;;;5.32;;
21729;SDS011;11027;51.030;13.812;2023-06-26T01:51:30;7.10;;;5.40;;
21729;SDS011;11027;51.030;13.812;2023-06-26T01:53:58;9.00;;;5.85;;
21729;SDS011;11027;51.030;13.812;2023-06-26T01:56:25;6.65;;;5.82;;
21729;SDS011;11027;51.030;13.812;2023-06-26T01:58:53;6.10;;;4.93;;
21729;SDS011;11027;51.030;13.812;2023-06-26T02:01:20;7.35;;;5.97;;
21729;SDS011;11027;51.030;13.812;2023-06-26T02:03:47;6.07;;;5.47;;
21729;SDS011;11027;51.030;13.812;2023-06-26T02:06:12;10.75;;;5.80;;
21729;SDS011;11027;51.030;13.812;2023-06-26T02:08:38;7.97;;;5.80;;
21729;SDS011;11027;51.030;13.812;2023-06-26T02:11:03;9.13;;;5.63;;
21729;SDS011;11027;51.030;13.812;2023-06-26T02:13:29;7.80;;;5.65;;
21729;SDS011;11027;51.030;13.812;2023-06-26T02:15:54;8.52;;;5.95;;
21729;SDS011;11027;51.030;13.812;2023-06-26T02:18:19;9.15;;;5.63;;
21729;SDS011;11027;51.030;13.812;2023-06-26T02:20:47;13.38;;;5.88;;
21729;SDS011;11027;51.030;13.812;2023-06-26T02:23:13;7.22;;;5.72;;
21729;SDS011;11027;51.030;13.812;2023-06-26T02:25:38;9.27;;;5.68;;
21729;SDS011;11027;51.030;13.812;2023-06-26T02:28:03;7.38;;;5.78;;
21729;SDS011;11027;51.030;13.812;2023-06-26T02:30:28;8.77;;;5.20;;
21729;SDS011;11027;51.030;13.812;2023-06-26T02:32:54;10.40;;;6.07;;
21729;SDS011;11027;51.030;13.812;2023-06-26T02:35:19;8.65;;;5.90;;
21729;SDS011;11027;51.030;13.812;2023-06-26T02:37:44;7.78;;;5.88;;
21729;SDS011;11027;51.030;13.812;2023-06-26T02:40:10;8.07;;;5.90;;
21729;SDS011;11027;51.030;13.812;2023-06-26T02:42:35;9.05;;;5.88;;
21729;SDS011;11027;51.030;13.812;2023-06-26T02:45:00;8.00;;;5.28;;
21729;SDS011;11027;51.030;13.812;2023-06-26T02:47:26;8.35;;;6.10;;
21729;SDS011;11027;51.030;13.812;2023-06-26T02:49:51;6.47;;;5.60;;
21729;SDS011;11027;51.030;13.812;2023-06-26T02:52:16;7.03;;;5.70;;
21729;SDS011;11027;51.030;13.812;2023-06-26T02:54:41;9.13;;;5.70;;
21729;SDS011;11027;51.030;13.812;2023-06-26T02:57:07;8.80;;;6.35;;
21729;SDS011;11027;51.030;13.812;2023-06-26T02:59:32;9.10;;;5.32;;
21729;SDS011;11027;51.030;13.812;2023-06-26T03:01:57;7.53;;;5.93;;
21729;SDS011;11027;51.030;13.812;2023-06-26T03:04:23;10.20;;;5.95;;
21729;SDS011;11027;51.030;13.812;2023-06-26T03:06:48;7.95;;;5.50;;
21729;SDS011;11027;51.030;13.812;2023-06-26T03:09:13;8.20;;;5.93;;
21729;SDS011;11027;51.030;13.812;2023-06-26T03:11:38;10.80;;;6.30;;
21729;SDS011;11027;51.030;13.812;2023-06-26T03:14:04;6.20;;;5.60;;
21729;SDS011;11027;51.030;13.812;2023-06-26T03:16:29;8.68;;;5.55;;
21729;SDS011;11027;51.030;13.812;2023-06-26T03:18:54;6.65;;;6.00;;
21729;SDS011;11027;51.030;13.812;2023-06-26T03:21:19;10.05;;;5.65;;
21729;SDS011;11027;51.030;13.812;2023-06-26T03:23:45;7.38;;;5.95;;
21729;SDS011;11027;51.030;13.812;2023-06-26T03:26:10;9.68;;;5.72;;
21729;SDS011;11027;51.030;13.812;2023-06-26T03:28:35;7.55;;;5.68;;
21729;SDS011;11027;51.030;13.812;2023-06-26T03:31:01;6.45;;;5.70;;
21729;SDS011;11027;51.030;13.812;2023-06-26T03:33:26;7.82;;;5.35;;
21729;SDS011;11027;51.030;13.812;2023-06-26T03:35:51;7.15;;;6.07;;
21729;SDS011;11027;51.030;13.812;2023-06-26T03:38:17;8.35;;;5.97;;
21729;SDS011;11027;51.030;13.812;2023-06-26T03:40:42;10.05;;;6.10;;
21729;SDS011;11027;51.030;13.812;2023-06-26T03:43:07;9.68;;;6.03;;
21729;SDS011;11027;51.030;13.812;2023-06-26T03:45:32;8.27;;;5.75;;
21729;SDS011;11027;51.030;13.812;2023-06-26T03:47:58;10.55;;;5.97;;
21729;SDS011;11027;51.030;13.812;2023-06-26T03:50:23;8.07;;;6.00;;
21729;SDS011;11027;51.030;13.812;2023-06-26T03:52:48;7.60;;;5.60;;
21729;SDS011;11027;51.030;13.812;2023-06-26T03:55:15;11.93;;;6.18;;
21729;SDS011;11027;51.030;13.812;2023-06-26T03:57:40;9.43;;;6.25;;
21729;SDS011;11027;51.030;13.812;2023-06-26T04:00:06;8.98;;;5.57;;
21729;SDS011;11027;51.030;13.812;2023-06-26T04:02:36;7.43;;;5.50;;
21729;SDS011;11027;51.030;13.812;2023-06-26T04:05:01;9.60;;;6.07;;
21729;SDS011;11027;51.030;13.812;2023-06-26T04:07:28;8.00;;;5.55;;
21729;SDS011;11027;51.030;13.812;2023-06-26T04:09:53;9.95;;;5.75;;
21729;SDS011;11027;51.030;13.812;2023-06-26T04:12:19;9.68;;;5.88;;
21729;SDS011;11027;51.030;13.812;2023-06-26T04:14:44;7.97;;;5.70;;
21729;SDS011;11027;51.030;13.812;2023-06-26T04:17:10;9.65;;;6.53;;
21729;SDS011;11027;51.030;13.812;2023-06-26T04:19:35;8.57;;;6.75;;
21729;SDS011;11027;51.030;13.812;2023-06-26T04:22:01;9.98;;;5.78;;
21729;SDS011;11027;51.030;13.812;2023-06-26T04:24:27;7.97;;;5.60;;
21729;SDS011;11027;51.030;13.812;2023-06-26T04:26:52;9.13;;;5.68;;
21729;SDS011;11027;51.030;13.812;2023-06-26T04:29:17;7.72;;;5.25;;
21729;SDS011;11027;51.030;13.812;2023-06-26T04:31:42;9.60;;;6.07;;
21729;SDS011;11027;51.030;13.812;2023-06-26T04:34:11;6.22;;;5.60;;
21729;SDS011;11027;51.030;13.812;2023-06-26T04:36:36;8.55;;;5.80;;
21729;SDS011;11027;51.030;13.812;2023-06-26T04:39:03;9.27;;;5.72;;
21729;SDS011;11027;51.030;13.812;2023-06-26T04:41:29;6.57;;;5.10;;
21729;SDS011;11027;51.030;13.812;2023-06-26T04:43:54;9.10;;;5.80;;
21729;SDS011;11027;51.030;13.812;2023-06-26T04:46:20;9.63;;;5.60;;
21729;SDS011;11027;51.030;13.812;2023-06-26T04:48:45;9.15;;;5.68;;
21729;SDS011;11027;51.030;13.812;2023-06-26T04:51:11;7.70;;;4.97;;
21729;SDS011;11027;51.030;13.812;2023-06-26T04:53:36;7.85;;;7.00;;
21729;SDS011;11027;51.030;13.812;2023-06-26T04:56:02;7.85;;;5.70;;
21729;SDS011;11027;51.030;13.812;2023-06-26T04:58:27;12.23;;;5.80;;
21729;SDS011;11027;51.030;13.812;2023-06-26T05:00:53;8.32;;;5.15;;
21729;SDS011;11027;51.030;13.812;2023-06-26T05:03:18;7.13;;;5.40;;
21729;SDS011;11027;51.030;13.812;2023-06-26T05:05:43;7.18;;;5.72;;
21729;SDS011;11027;51.030;13.812;2023-06-26T05:10:41;11.50;;;5.63;;
21729;SDS011;11027;51.030;13.812;2023-06-26T05:13:07;11.65;;;5.93;;
21729;SDS011;11027;51.030;13.812;2023-06-26T05:15:32;8.30;;;5.15;;
21729;SDS011;11027;51.030;13.812;2023-06-26T05:17:58;6.97;;;5.57;;
21729;SDS011;11027;51.030;13.812;2023-06-26T05:20:23;5.70;;;5.13;;
21729;SDS011;11027;51.030;13.812;2023-06-26T05:22:48;7.10;;;5.10;;
21729;SDS011;11027;51.030;13.812;2023-06-26T05:25:14;8.57;;;5.38;;
21729;SDS011;11027;51.030;13.812;2023-06-26T05:27:40;9.35;;;5.50;;
21729;SDS011;11027;51.030;13.812;2023-06-26T05:30:06;10.05;;;5.63;;
21729;SDS011;11027;51.030;13.812;2023-06-26T05:32:32;9.93;;;5.85;;
21729;SDS011;11027;51.030;13.812;2023-06-26T05:35:00;8.38;;;5.35;;
21729;SDS011;11027;51.030;13.812;2023-06-26T05:37:27;7.45;;;5.78;;
21729;SDS011;11027;51.030;13.812;2023-06-26T05:39:53;11.40;;;6.80;;
21729;SDS011;11027;51.030;13.812;2023-06-26T05:42:19;8.77;;;5.60;;
21729;SDS011;11027;51.030;13.812;2023-06-26T05:44:44;9.60;;;5.47;;
21729;SDS011;11027;51.030;13.812;2023-06-26T05:47:09;7.90;;;5.68;;
21729;SDS011;11027;51.030;13.812;2023-06-26T05:49:35;6.13;;;5.28;;
21729;SDS011;11027;51.030;13.812;2023-06-26T05:52:00;6.55;;;4.80;;
21729;SDS011;11027;51.030;13.812;2023-06-26T05:54:26;7.93;;;5.30;;
21729;SDS011;11027;51.030;13.812;2023-06-26T05:56:56;9.57;;;5.50;;
21729;SDS011;11027;51.030;13.812;2023-06-26T05:59:26;7.75;;;5.43;;
21729;SDS011;11027;51.030;13.812;2023-06-26T06:01:51;9.45;;;5.03;;
21729;SDS011;11027;51.030;13.812;2023-06-26T06:04:17;8.85;;;5.10;;
21729;SDS011;11027;51.030;13.812;2023-06-26T06:06:42;7.00;;;4.82;;
21729;SDS011;11027;51.030;13.812;2023-06-26T06:09:07;5.68;;;5.07;;
21729;SDS011;11027;51.030;13.812;2023-06-26T06:11:33;9.52;;;4.60;;
21729;SDS011;11027;51.030;13.812;2023-06-26T06:13:58;9.32;;;5.40;;
21729;SDS011;11027;51.030;13.812;2023-06-26T06:16:24;6.40;;;5.47;;
21729;SDS011;11027;51.030;13.812;2023-06-26T06:18:50;5.20;;;4.70;;
21729;SDS011;11027;51.030;13.812;2023-06-26T06:21:15;6.32;;;4.72;;
21729;SDS011;11027;51.030;13.812;2023-06-26T06:23:40;8.68;;;4.93;;
21729;SDS011;11027;51.030;13.812;2023-06-26T06:26:05;9.40;;;4.82;;
21729;SDS011;11027;51.030;13.812;2023-06-26T06:28:31;5.90;;;4.90;;
21729;SDS011;11027;51.030;13.812;2023-06-26T06:30:56;5.88;;;4.38;;
21729;SDS011;11027;51.030;13.812;2023-06-26T06:33:21;5.70;;;5.10;;
21729;SDS011;11027;51.030;13.812;2023-06-26T06:35:46;7.88;;;4.80;;
21729;SDS011;11027;51.030;13.812;2023-06-26T06:38:12;6.47;;;4.85;;
21729;SDS011;11027;51.030;13.812;2023-06-26T06:40:37;6.57;;;4.50;;
21729;SDS011;11027;51.030;13.812;2023-06-26T06:43:02;11.27;;;4.43;;
21729;SDS011;11027;51.030;13.812;2023-06-26T06:45:27;9.07;;;4.05;;
21729;SDS011;11027;51.030;13.812;2023-06-26T06:47:53;6.55;;;4.72;;
21729;SDS011;11027;51.030;13.812;2023-06-26T06:50:18;8.93;;;4.30;;
21729;SDS011;11027;51.030;13.812;2023-06-26T06:52:43;5.05;;;4.45;;
21729;SDS011;11027;51.030;13.812;2023-06-26T06:55:08;5.43;;;4.55;;
21729;SDS011;11027;51.030;13.812;2023-06-26T06:57:38;8.40;;;4.40;;
21729;SDS011;11027;51.030;13.812;2023-06-26T07:00:05;6.60;;;4.68;;
21729;SDS011;11027;51.030;13.812;2023-06-26T07:02:38;9.15;;;4.70;;
21729;SDS011;11027;51.030;13.812;2023-06-26T07:05:04;5.20;;;4.57;;
21729;SDS011;11027;51.030;13.812;2023-06-26T07:07:31;5.65;;;4.43;;
21729;SDS011;11027;51.030;13.812;2023-06-26T07:09:58;5.88;;;4.20;;
21729;SDS011;11027;51.030;13.812;2023-06-26T07:12:31;6.80;;;4.90;;
21729;SDS011;11027;51.030;13.812;2023-06-26T07:14:57;5.55;;;4.50;;
21729;SDS011;11027;51.030;13.812;2023-06-26T07:17:22;7.90;;;4.70;;
21729;SDS011;11027;51.030;13.812;2023-06-26T07:19:48;6.53;;;4.78;;
21729;SDS011;11027;51.030;13.812;2023-06-26T07:22:14;4.95;;;4.30;;
21729;SDS011;11027;51.030;13.812;2023-06-26T07:24:39;6.25;;;4.30;;
21729;SDS011;11027;51.030;13.812;2023-06-26T07:27:04;5.80;;;5.18;;
21729;SDS011;11027;51.030;13.812;2023-06-26T07:29:30;5.38;;;4.68;;
21729;SDS011;11027;51.030;13.812;2023-06-26T07:31:55;6.53;;;4.50;;
21729;SDS011;11027;51.030;13.812;2023-06-26T07:34:20;6.47;;;4.35;;
21729;SDS011;11027;51.030;13.812;2023-06-26T07:36:46;9.27;;;4.30;;
21729;SDS011;11027;51.030;13.812;2023-06-26T07:39:11;5.65;;;4.53;;
21729;SDS011;11027;51.030;13.812;2023-06-26T07:41:36;10.02;;;4.65;;
21729;SDS011;11027;51.030;13.812;2023-06-26T07:44:01;5.93;;;4.45;;
21729;SDS011;11027;51.030;13.812;2023-06-26T07:46:27;6.80;;;4.57;;
21729;SDS011;11027;51.030;13.812;2023-06-26T07:48:52;8.65;;;4.82;;
21729;SDS011;11027;51.030;13.812;2023-06-26T07:51:18;7.65;;;4.40;;
21729;SDS011;11027;51.030;13.812;2023-06-26T07:53:43;10.25;;;4.30;;
21729;SDS011;11027;51.030;13.812;2023-06-26T07:56:08;4.60;;;4.10;;
21729;SDS011;11027;51.030;13.812;2023-06-26T07:58:33;8.35;;;4.40;;
21729;SDS011;11027;51.030;13.812;2023-06-26T08:00:59;5.45;;;4.60;;
21729;SDS011;11027;51.030;13.812;2023-06-26T08:03:24;9.30;;;5.45;;
21729;SDS011;11027;51.030;13.812;2023-06-26T08:05:49;5.18;;;4.68;;
21729;SDS011;11027;51.030;13.812;2023-06-26T08:08:14;5.35;;;4.45;;
21729;SDS011;11027;51.030;13.812;2023-06-26T08:10:40;5.03;;;4.38;;
21729;SDS011;11027;51.030;13.812;2023-06-26T08:13:05;6.47;;;4.40;;
21729;SDS011;11027;51.030;13.812;2023-06-26T08:15:30;7.13;;;4.30;;
21729;SDS011;11027;51.030;13.812;2023-06-26T08:17:55;10.18;;;4.57;;
21729;SDS011;11027;51.030;13.812;2023-06-26T08:20:21;5.45;;;4.78;;
21729;SDS011;11027;51.030;13.812;2023-06-26T08:22:47;10.13;;;4.53;;
21729;SDS011;11027;51.030;13.812;2023-06-26T08:25:14;5.60;;;4.65;;
21729;SDS011;11027;51.030;13.812;2023-06-26T08:27:39;8.63;;;4.20;;
21729;SDS011;11027;51.030;13.812;2023-06-26T08:30:05;5.13;;;4.38;;
21729;SDS011;11027;51.030;13.812;2023-06-26T08:32:30;6.13;;;4.80;;
21729;SDS011;11027;51.030;13.812;2023-06-26T08:34:55;5.25;;;4.43;;
21729;SDS011;11027;51.030;13.812;2023-06-26T08:37:21;7.78;;;4.82;;
21729;SDS011;11027;51.030;13.812;2023-06-26T08:39:47;5.40;;;4.38;;
21729;SDS011;11027;51.030;13.812;2023-06-26T08:42:13;6.40;;;4.22;;
21729;SDS011;11027;51.030;13.812;2023-06-26T08:44:38;6.65;;;3.92;;
21729;SDS011;11027;51.030;13.812;2023-06-26T08:47:03;4.13;;;3.72;;
21729;SDS011;11027;51.030;13.812;2023-06-26T08:49:34;5.28;;;3.83;;
21729;SDS011;11027;51.030;13.812;2023-06-26T08:52:13;5.65;;;4.20;;
21729;SDS011;11027;51.030;13.812;2023-06-26T08:54:45;5.22;;;4.22;;
21729;SDS011;11027;51.030;13.812;2023-06-26T08:57:15;4.43;;;4.03;;
21729;SDS011;11027;51.030;13.812;2023-06-26T08:59:43;4.90;;;4.20;;
21729;SDS011;11027;51.030;13.812;2023-06-26T09:02:10;6.82;;;4.13;;
21729;SDS011;11027;51.030;13.812;2023-06-26T09:04:35;5.45;;;4.20;;
21729;SDS011;11027;51.030;13.812;2023-06-26T09:07:01;5.18;;;4.05;;
21729;SDS011;11027;51.030;13.812;2023-06-26T09:09:26;6.88;;;3.70;;
21729;SDS011;11027;51.030;13.812;2023-06-26T09:11:52;4.68;;;4.18;;
21729;SDS011;11027;51.030;13.812;2023-06-26T09:14:17;4.40;;;3.97;;
21729;SDS011;11027;51.030;13.812;2023-06-26T09:16:42;5.90;;;3.70;;
21729;SDS011;11027;51.030;13.812;2023-06-26T09:19:10;5.53;;;4.43;;
21729;SDS011;11027;51.030;13.812;2023-06-26T09:21:37;4.78;;;4.30;;
21729;SDS011;11027;51.030;13.812;2023-06-26T09:24:04;4.68;;;3.80;;
21729;SDS011;11027;51.030;13.812;2023-06-26T09:26:32;6.07;;;3.90;;
21729;SDS011;11027;51.030;13.812;2023-06-26T09:28:58;5.05;;;4.25;;
21729;SDS011;11027;51.030;13.812;2023-06-26T09:31:24;4.82;;;3.95;;
21729;SDS011;11027;51.030;13.812;2023-06-26T09:33:49;6.57;;;3.67;;
21729;SDS011;11027;51.030;13.812;2023-06-26T09:36:22;4.20;;;3.72;;
21729;SDS011;11027;51.030;13.812;2023-06-26T09:38:49;4.93;;;4.00;;
21729;SDS011;11027;51.030;13.812;2023-06-26T09:41:15;6.47;;;4.15;;
21729;SDS011;11027;51.030;13.812;2023-06-26T09:43:50;4.90;;;4.07;;
21729;SDS011;11027;51.030;13.812;2023-06-26T09:46:26;4.25;;;3.80;;
21729;SDS011;11027;51.030;13.812;2023-06-26T09:48:59;5.18;;;4.68;;
21729;SDS011;11027;51.030;13.812;2023-06-26T09:51:33;4.57;;;4.18;;
21729;SDS011;11027;51.030;13.812;2023-06-26T09:54:00;5.00;;;4.50;;
21729;SDS011;11027;51.030;13.812;2023-06-26T09:56:25;4.75;;;4.32;;
21729;SDS011;11027;51.030;13.812;2023-06-26T09:58:53;4.63;;;4.00;;
21729;SDS011;11027;51.030;13.812;2023-06-26T10:01:20;4.88;;;4.13;;
21729;SDS011;11027;51.030;13.812;2023-06-26T10:03:46;6.32;;;5.10;;
21729;SDS011;11027;51.030;13.812;2023-06-26T10:06:11;5.63;;;4.10;;
21729;SDS011;11027;51.030;13.812;2023-06-26T10:08:38;4.93;;;4.25;;
21729;SDS011;11027;51.030;13.812;2023-06-26T10:11:05;4.90;;;4.40;;
21729;SDS011;11027;51.030;13.812;2023-06-26T10:13:34;4.50;;;4.10;;
21729;SDS011;11027;51.030;13.812;2023-06-26T10:16:04;4.53;;;4.13;;
21729;SDS011;11027;51.030;13.812;2023-06-26T10:18:32;5.00;;;4.47;;
21729;SDS011;11027;51.030;13.812;2023-06-26T10:21:01;4.78;;;4.20;;
21729;SDS011;11027;51.030;13.812;2023-06-26T10:23:28;5.72;;;4.00;;
21729;SDS011;11027;51.030;13.812;2023-06-26T10:25:55;4.53;;;4.13;;
21729;SDS011;11027;51.030;13.812;2023-06-26T10:28:24;6.90;;;5.72;;
21729;SDS011;11027;51.030;13.812;2023-06-26T10:30:53;4.47;;;4.07;;
21729;SDS011;11027;51.030;13.812;2023-06-26T10:33:19;4.40;;;4.00;;
21729;SDS011;11027;51.030;13.812;2023-06-26T10:35:45;3.63;;;3.30;;
21729;SDS011;11027;51.030;13.812;2023-06-26T10:38:11;7.97;;;3.70;;
21729;SDS011;11027;51.030;13.812;2023-06-26T10:40:40;5.70;;;3.85;;
21729;SDS011;11027;51.030;13.812;2023-06-26T10:43:07;8.32;;;3.60;;
21729;SDS011;11027;51.030;13.812;2023-06-26T10:45:33;4.50;;;3.53;;
21729;SDS011;11027;51.030;13.812;2023-06-26T10:48:00;5.13;;;3.35;;
21729;SDS011;11027;51.030;13.812;2023-06-26T10:50:27;4.57;;;3.60;;
21729;SDS011;11027;51.030;13.812;2023-06-26T10:55:41;6.85;;;3.30;;
21729;SDS011;11027;51.030;13.812;2023-06-26T11:00:52;4.80;;;3.38;;
21729;SDS011;11027;51.030;13.812;2023-06-26T11:03:39;4.00;;;3.63;;
21729;SDS011;11027;51.030;13.812;2023-06-26T11:06:32;4.40;;;4.00;;
21729;SDS011;11027;51.030;13.812;2023-06-26T11:14:13;7.40;;;4.10;;
21729;SDS011;11027;51.030;13.812;2023-06-26T11:16:39;5.95;;;3.33;;
21729;SDS011;11027;51.030;13.812;2023-06-26T11:19:07;3.80;;;3.50;;
21729;SDS011;11027;51.030;13.812;2023-06-26T11:21:34;6.80;;;3.55;;
21729;SDS011;11027;51.030;13.812;2023-06-26T11:24:00;4.20;;;3.75;;
21729;SDS011;11027;51.030;13.812;2023-06-26T11:26:27;5.28;;;3.70;;
21729;SDS011;11027;51.030;13.812;2023-06-26T11:28:55;4.03;;;3.50;;
21729;SDS011;11027;51.030;13.812;2023-06-26T11:31:28;3.40;;;3.03;;
21729;SDS011;11027;51.030;13.812;2023-06-26T11:34:02;3.40;;;3.10;;
21729;SDS011;11027;51.030;13.812;2023-06-26T11:36:29;4.45;;;3.70;;
21729;SDS011;11027;51.030;13.812;2023-06-26T11:38:55;4.65;;;3.60;;
21729;SDS011;11027;51.030;13.812;2023-06-26T11:41:21;4.13;;;3.33;;
21729;SDS011;11027;51.030;13.812;2023-06-26T11:43:47;4.07;;;3.75;;
21729;SDS011;11027;51.030;13.812;2023-06-26T11:46:15;4.82;;;4.43;;
21729;SDS011;11027;51.030;13.812;2023-06-26T11:48:42;4.25;;;3.67;;
21729;SDS011;11027;51.030;13.812;2023-06-26T11:51:07;4.70;;;3.57;;
21729;SDS011;11027;51.030;13.812;2023-06-26T11:53:38;3.80;;;3.50;;
21729;SDS011;11027;51.030;13.812;2023-06-26T11:56:11;5.60;;;3.30;;
21729;SDS011;11027;51.030;13.812;2023-06-26T12:04:01;3.70;;;3.28;;
21729;SDS011;11027;51.030;13.812;2023-06-26T12:06:32;5.10;;;3.47;;
21729;SDS011;11027;51.030;13.812;2023-06-26T12:09:04;9.07;;;3.78;;
21729;SDS011;11027;51.030;13.812;2023-06-26T12:11:31;4.65;;;3.65;;
21729;SDS011;11027;51.030;13.812;2023-06-26T12:13:58;4.30;;;3.88;;
21729;SDS011;11027;51.030;13.812;2023-06-26T12:16:24;6.15;;;3.40;;
21729;SDS011;11027;51.030;13.812;2023-06-26T12:18:50;6.30;;;3.50;;
21729;SDS011;11027;51.030;13.812;2023-06-26T12:21:28;6.63;;;5.80;;
21729;SDS011;11027;51.030;13.812;2023-06-26T12:24:09;3.50;;;3.20;;
21729;SDS011;11027;51.030;13.812;2023-06-26T12:26:37;5.53;;;4.28;;
21729;SDS011;11027;51.030;13.812;2023-06-26T12:29:03;3.70;;;3.40;;
21729;SDS011;11027;51.030;13.812;2023-06-26T12:31:29;4.22;;;3.30;;
21729;SDS011;11027;51.030;13.812;2023-06-26T12:33:56;4.55;;;3.40;;
21729;SDS011;11027;51.030;13.812;2023-06-26T12:36:22;7.03;;;3.40;;
21729;SDS011;11027;51.030;13.812;2023-06-26T12:38:48;4.78;;;3.85;;
21729;SDS011;11027;51.030;13.812;2023-06-26T12:41:14;6.00;;;3.40;;
21729;SDS011;11027;51.030;13.812;2023-06-26T12:43:40;4.35;;;3.95;;
21729;SDS011;11027;51.030;13.812;2023-06-26T12:46:07;6.07;;;3.30;;
21729;SDS011;11027;51.030;13.812;2023-06-26T12:48:42;4.55;;;3.65;;
21729;SDS011;11027;51.030;13.812;2023-06-26T12:51:12;6.57;;;3.58;;
21729;SDS011;11027;51.030;13.812;2023-06-26T12:53:39;5.37;;;3.37;;
21729;SDS011;11027;51.030;13.812;2023-06-26T12:56:05;4.70;;;3.50;;
21729;SDS011;11027;51.030;13.812;2023-06-26T12:58:31;3.95;;;3.45;;
21729;SDS011;11027;51.030;13.812;2023-06-26T13:00:56;3.70;;;3.40;;
21729;SDS011;11027;51.030;13.812;2023-06-26T13:03:22;4.60;;;3.30;;
21729;SDS011;11027;51.030;13.812;2023-06-26T13:05:48;4.30;;;3.90;;
21729;SDS011;11027;51.030;13.812;2023-06-26T13:08:13;4.10;;;3.70;;
21729;SDS011;11027;51.030;13.812;2023-06-26T13:10:42;3.47;;;3.22;;
21729;SDS011;11027;51.030;13.812;2023-06-26T13:13:07;6.38;;;3.40;;
21729;SDS011;11027;51.030;13.812;2023-06-26T13:15:33;3.63;;;3.33;;
21729;SDS011;11027;51.030;13.812;2023-06-26T13:17:58;3.50;;;3.20;;
21729;SDS011;11027;51.030;13.812;2023-06-26T13:20:24;4.17;;;3.27;;
21729;SDS011;11027;51.030;13.812;2023-06-26T13:22:49;4.30;;;3.40;;
21729;SDS011;11027;51.030;13.812;2023-06-26T13:25:14;4.93;;;3.63;;
21729;SDS011;11027;51.030;13.812;2023-06-26T13:27:39;4.73;;;3.77;;
21729;SDS011;11027;51.030;13.812;2023-06-26T13:30:05;4.27;;;3.80;;
21729;SDS011;11027;51.030;13.812;2023-06-26T13:32:30;7.20;;;3.40;;
21729;SDS011;11027;51.030;13.812;2023-06-26T13:34:56;5.37;;;3.63;;
21729;SDS011;11027;51.030;13.812;2023-06-26T13:37:22;3.80;;;3.45;;
21729;SDS011;11027;51.030;13.812;2023-06-26T13:39:47;4.13;;;3.33;;
21729;SDS011;11027;51.030;13.812;2023-06-26T13:42:15;4.05;;;3.70;;
21729;SDS011;11027;51.030;13.812;2023-06-26T13:44:41;3.92;;;3.63;;
21729;SDS011;11027;51.030;13.812;2023-06-26T13:47:06;4.73;;;4.20;;
21729;SDS011;11027;51.030;13.812;2023-06-26T13:49:31;3.97;;;3.58;;
21729;SDS011;11027;51.030;13.812;2023-06-26T13:51:57;4.90;;;3.70;;
21729;SDS011;11027;51.030;13.812;2023-06-26T13:54:22;4.97;;;3.97;;
21729;SDS011;11027;51.030;13.812;2023-06-26T13:56:47;4.87;;;4.10;;
21729;SDS011;11027;51.030;13.812;2023-06-26T13:59:12;3.90;;;3.53;;
21729;SDS011;11027;51.030;13.812;2023-06-26T14:01:39;4.03;;;3.53;;
21729;SDS011;11027;51.030;13.812;2023-06-26T14:04:04;5.15;;;3.47;;
21729;SDS011;11027;51.030;13.812;2023-06-26T14:06:29;4.20;;;3.80;;
21729;SDS011;11027;51.030;13.812;2023-06-26T14:08:55;4.85;;;3.45;;
21729;SDS011;11027;51.030;13.812;2023-06-26T14:11:20;3.42;;;3.20;;
21729;SDS011;11027;51.030;13.812;2023-06-26T14:13:47;3.55;;;3.25;;
21729;SDS011;11027;51.030;13.812;2023-06-26T14:16:12;4.27;;;3.40;;
21729;SDS011;11027;51.030;13.812;2023-06-26T14:18:38;3.80;;;3.50;;
21729;SDS011;11027;51.030;13.812;2023-06-26T14:21:03;3.85;;;3.55;;
21729;SDS011;11027;51.030;13.812;2023-06-26T14:23:29;4.25;;;3.63;;
21729;SDS011;11027;51.030;13.812;2023-06-26T14:25:54;4.28;;;3.65;;
21729;SDS011;11027;51.030;13.812;2023-06-26T14:28:19;4.33;;;3.43;;
21729;SDS011;11027;51.030;13.812;2023-06-26T14:30:44;6.83;;;3.73;;
21729;SDS011;11027;51.030;13.812;2023-06-26T14:33:10;3.85;;;3.55;;
21729;SDS011;11027;51.030;13.812;2023-06-26T14:35:35;4.20;;;3.75;;
21729;SDS011;11027;51.030;13.812;2023-06-26T14:38:00;4.00;;;3.60;;
21729;SDS011;11027;51.030;13.812;2023-06-26T14:40:26;5.35;;;3.85;;
21729;SDS011;11027;51.030;13.812;2023-06-26T14:42:51;4.28;;;3.50;;
21729;SDS011;11027;51.030;13.812;2023-06-26T14:45:18;7.13;;;3.75;;
21729;SDS011;11027;51.030;13.812;2023-06-26T14:47:43;6.10;;;3.70;;
21729;SDS011;11027;51.030;13.812;2023-06-26T14:50:08;4.00;;;3.70;;